This is the latest recevied weather packets stored in our database for station/object N3WPH. If no packets are shown the sender has not sent any weather packets the latest 10 day(s).
| Time | Temp. | Humidity | Pressure | Rain* | Wind** | Luminosity | Snow |
|---|---|---|---|---|---|---|---|
| 1777588948 | 11.11° C | 72% | 1009.3 hPa | 0 mm | - | 12 W/m² | - |
| 1777588643 | 11.11° C | 72% | 1009.2 hPa | 0 mm | - | 12 W/m² | - |
| 1777588339 | 11.11° C | 73% | 1009.2 hPa | 0 mm | - | 11 W/m² | - |
| 1777588034 | 11.11° C | 72% | 1009.3 hPa | 0 mm | - | 9 W/m² | - |
| 1777587724 | 11.11° C | 72% | 1009.1 hPa | 0 mm | - | 10 W/m² | - |
| 1777587418 | 11.67° C | 72% | 1009.1 hPa | 0 mm | - | 8 W/m² | - |
| 1777587115 | 11.67° C | 71% | 1009.2 hPa | 0 mm | - | 9 W/m² | - |
| 1777586810 | 11.67° C | 71% | 1008.8 hPa | 0 mm | - | 13 W/m² | - |
| 1777586501 | 11.67° C | 70% | 1008.8 hPa | 0 mm | - | 20 W/m² | - |
| 1777586196 | 11.67° C | 69% | 1008.9 hPa | 0 mm | - | 31 W/m² | - |
| 1777585894 | 12.22° C | 70% | 1008.6 hPa | 0 mm | - | 61 W/m² | - |
| 1777585588 | 12.22° C | 70% | 1008.7 hPa | 0 mm | - | 103 W/m² | - |
| 1777585284 | 12.22° C | 69% | 1008.6 hPa | 0 mm | - | 73 W/m² | - |
| 1777584979 | 12.78° C | 69% | 1008.3 hPa | 0 mm | - | 70 W/m² | - |
| 1777584676 | 12.78° C | 68% | 1008.3 hPa | 0 mm | - | 72 W/m² | - |
| 1777584373 | 12.78° C | 69% | 1008.3 hPa | 0 mm | - | 143 W/m² | - |
| 1777584070 | 12.78° C | 69% | 1008.1 hPa | 0 mm | - | 92 W/m² | - |
| 1777583764 | 12.78° C | 67% | 1008.1 hPa | 0 mm | - | 87 W/m² | - |
| 1777583464 | 13.33° C | 66% | 1008.2 hPa | 0 mm | - | 105 W/m² | - |
| 1777583162 | 13.89° C | 65% | 1008.1 hPa | 0 mm | - | 134 W/m² | - |
| 1777582858 | 14.44° C | 64% | 1007.8 hPa | 0 mm | - | 182 W/m² | - |
| 1777582555 | 15.56° C | 62% | 1007.9 hPa | 0 mm | - | 198 W/m² | - |
| 1777582250 | 15° C | 66% | 1007.9 hPa | 0 mm | - | 484 W/m² | - |
| 1777581944 | 15° C | 63% | 1007.7 hPa | 0 mm | - | 429 W/m² | - |
| 1777581639 | 13.33° C | 69% | 1007.9 hPa | 0 mm | - | 628 W/m² | - |
* Rain latest hour (hover to see other rain measurements)
** Current wind speed in m/s (hover to see current wind gust speed)